sensor_id;sensor_type;location;lat;lon;timestamp;pressure;altitude;pressure_sealevel;temperature
26158;BMP280;67284;44.782;10.282;2024-02-26T00:03:42;100103.88;;;10.55
26158;BMP280;67284;44.782;10.282;2024-02-26T00:08:36;100097.94;;;10.53
26158;BMP280;67284;44.782;10.282;2024-02-26T00:13:28;100084.16;;;10.54
26158;BMP280;67284;44.782;10.282;2024-02-26T00:18:20;100069.59;;;10.55
26158;BMP280;67284;44.782;10.282;2024-02-26T00:23:15;100085.91;;;10.54
26158;BMP280;67284;44.782;10.282;2024-02-26T00:28:07;100081.78;;;10.45
26158;BMP280;67284;44.782;10.282;2024-02-26T00:32:59;100075.03;;;10.40
26158;BMP280;67284;44.782;10.282;2024-02-26T00:37:51;100062.00;;;10.47
26158;BMP280;67284;44.782;10.282;2024-02-26T00:42:43;100058.56;;;10.48
26158;BMP280;67284;44.782;10.282;2024-02-26T00:47:37;100056.00;;;10.48
26158;BMP280;67284;44.782;10.282;2024-02-26T00:52:29;100054.53;;;10.37
26158;BMP280;67284;44.782;10.282;2024-02-26T00:57:21;100066.41;;;10.42
26158;BMP280;67284;44.782;10.282;2024-02-26T01:02:13;100044.06;;;10.44
26158;BMP280;67284;44.782;10.282;2024-02-26T01:07:05;100038.06;;;10.45
26158;BMP280;67284;44.782;10.282;2024-02-26T01:11:57;100031.22;;;10.44
26158;BMP280;67284;44.782;10.282;2024-02-26T01:16:49;100026.91;;;10.45
26158;BMP280;67284;44.782;10.282;2024-02-26T01:21:41;100021.78;;;10.46
26158;BMP280;67284;44.782;10.282;2024-02-26T01:26:33;100013.22;;;10.44
26158;BMP280;67284;44.782;10.282;2024-02-26T01:31:25;100008.03;;;10.46
26158;BMP280;67284;44.782;10.282;2024-02-26T01:36:16;99998.69;;;10.42
26158;BMP280;67284;44.782;10.282;2024-02-26T01:41:08;99996.28;;;10.35
26158;BMP280;67284;44.782;10.282;2024-02-26T01:46:00;100004.09;;;10.30
26158;BMP280;67284;44.782;10.282;2024-02-26T01:50:52;100002.28;;;10.34
26158;BMP280;67284;44.782;10.282;2024-02-26T01:55:44;100004.84;;;10.34
26158;BMP280;67284;44.782;10.282;2024-02-26T02:00:36;99997.13;;;10.35
26158;BMP280;67284;44.782;10.282;2024-02-26T02:05:30;99987.78;;;10.30
26158;BMP280;67284;44.782;10.282;2024-02-26T02:10:26;99987.84;;;10.27
26158;BMP280;67284;44.782;10.282;2024-02-26T02:15:18;99986.13;;;10.29
26158;BMP280;67284;44.782;10.282;2024-02-26T02:20:16;99980.13;;;10.27
26158;BMP280;67284;44.782;10.282;2024-02-26T02:25:08;99980.91;;;10.32
26158;BMP280;67284;44.782;10.282;2024-02-26T02:30:01;99971.66;;;10.23
26158;BMP280;67284;44.782;10.282;2024-02-26T02:34:54;99970.03;;;10.19
26158;BMP280;67284;44.782;10.282;2024-02-26T02:39:46;99965.56;;;10.29
26158;BMP280;67284;44.782;10.282;2024-02-26T02:44:38;99962.84;;;10.35
26158;BMP280;67284;44.782;10.282;2024-02-26T02:49:30;99962.03;;;10.33
26158;BMP280;67284;44.782;10.282;2024-02-26T02:54:22;99969.28;;;10.14
26158;BMP280;67284;44.782;10.282;2024-02-26T02:59:14;99957.13;;;10.21
26158;BMP280;67284;44.782;10.282;2024-02-26T03:04:06;99972.44;;;10.27
26158;BMP280;67284;44.782;10.282;2024-02-26T03:08:57;99957.84;;;10.29
26158;BMP280;67284;44.782;10.282;2024-02-26T03:13:49;99931.22;;;10.30
26158;BMP280;67284;44.782;10.282;2024-02-26T03:18:41;99933.81;;;10.28
26158;BMP280;67284;44.782;10.282;2024-02-26T03:23:33;99936.63;;;10.18
26158;BMP280;67284;44.782;10.282;2024-02-26T03:28:28;99927.09;;;10.24
26158;BMP280;67284;44.782;10.282;2024-02-26T03:33:19;99919.41;;;10.23
26158;BMP280;67284;44.782;10.282;2024-02-26T03:38:13;99924.47;;;10.26
26158;BMP280;67284;44.782;10.282;2024-02-26T03:43:05;99921.19;;;10.19
26158;BMP280;67284;44.782;10.282;2024-02-26T03:47:59;99927.41;;;10.08
26158;BMP280;67284;44.782;10.282;2024-02-26T03:52:51;99941.31;;;9.98
26158;BMP280;67284;44.782;10.282;2024-02-26T03:57:43;99950.84;;;9.90
26158;BMP280;67284;44.782;10.282;2024-02-26T04:02:35;99946.50;;;9.96
26158;BMP280;67284;44.782;10.282;2024-02-26T04:07:26;99953.06;;;10.11
26158;BMP280;67284;44.782;10.282;2024-02-26T04:12:18;99962.28;;;10.21
26158;BMP280;67284;44.782;10.282;2024-02-26T04:17:10;99952.09;;;10.16
26158;BMP280;67284;44.782;10.282;2024-02-26T04:22:03;99965.75;;;10.18
26158;BMP280;67284;44.782;10.282;2024-02-26T04:26:54;99962.16;;;10.27
26158;BMP280;67284;44.782;10.282;2024-02-26T04:31:46;99951.78;;;10.30
26158;BMP280;67284;44.782;10.282;2024-02-26T04:36:39;99958.72;;;10.28
26158;BMP280;67284;44.782;10.282;2024-02-26T04:41:31;99938.94;;;10.31
26158;BMP280;67284;44.782;10.282;2024-02-26T04:46:23;99920.91;;;10.33
26158;BMP280;67284;44.782;10.282;2024-02-26T04:51:15;99919.97;;;10.35
26158;BMP280;67284;44.782;10.282;2024-02-26T04:56:07;99932.78;;;10.37
26158;BMP280;67284;44.782;10.282;2024-02-26T05:00:58;99913.28;;;10.27
26158;BMP280;67284;44.782;10.282;2024-02-26T05:05:50;99904.88;;;10.20
26158;BMP280;67284;44.782;10.282;2024-02-26T05:10:45;99922.16;;;10.12
26158;BMP280;67284;44.782;10.282;2024-02-26T05:15:37;99924.81;;;10.09
26158;BMP280;67284;44.782;10.282;2024-02-26T05:20:28;99935.84;;;10.13
26158;BMP280;67284;44.782;10.282;2024-02-26T05:25:20;99941.91;;;10.12
26158;BMP280;67284;44.782;10.282;2024-02-26T05:30:12;99954.78;;;10.10
26158;BMP280;67284;44.782;10.282;2024-02-26T05:35:05;99981.56;;;9.99
26158;BMP280;67284;44.782;10.282;2024-02-26T05:39:57;99959.31;;;9.98
26158;BMP280;67284;44.782;10.282;2024-02-26T05:44:49;99972.91;;;10.03
26158;BMP280;67284;44.782;10.282;2024-02-26T05:49:41;99979.00;;;9.97
26158;BMP280;67284;44.782;10.282;2024-02-26T05:54:33;99973.81;;;10.02
26158;BMP280;67284;44.782;10.282;2024-02-26T05:59:25;99972.78;;;10.10
26158;BMP280;67284;44.782;10.282;2024-02-26T06:04:17;99977.00;;;10.13
26158;BMP280;67284;44.782;10.282;2024-02-26T06:09:09;99970.03;;;10.19
26158;BMP280;67284;44.782;10.282;2024-02-26T06:14:03;99973.34;;;10.24
26158;BMP280;67284;44.782;10.282;2024-02-26T06:18:55;99972.53;;;10.22
26158;BMP280;67284;44.782;10.282;2024-02-26T06:23:48;99979.53;;;10.16
26158;BMP280;67284;44.782;10.282;2024-02-26T06:28:40;99978.72;;;10.12
26158;BMP280;67284;44.782;10.282;2024-02-26T06:33:32;99973.72;;;10.06
26158;BMP280;67284;44.782;10.282;2024-02-26T06:38:24;99975.50;;;10.01
26158;BMP280;67284;44.782;10.282;2024-02-26T06:43:16;99974.72;;;9.98
26158;BMP280;67284;44.782;10.282;2024-02-26T06:48:08;99966.22;;;9.94
26158;BMP280;67284;44.782;10.282;2024-02-26T06:53:01;99956.00;;;9.90
26158;BMP280;67284;44.782;10.282;2024-02-26T06:57:52;99956.00;;;9.90
26158;BMP280;67284;44.782;10.282;2024-02-26T07:02:44;99953.44;;;9.88
26158;BMP280;67284;44.782;10.282;2024-02-26T07:07:36;99953.44;;;9.88
26158;BMP280;67284;44.782;10.282;2024-02-26T07:12:31;99956.22;;;9.78
26158;BMP280;67284;44.782;10.282;2024-02-26T07:17:23;99950.31;;;9.73
26158;BMP280;67284;44.782;10.282;2024-02-26T07:22:15;99958.09;;;9.69
26158;BMP280;67284;44.782;10.282;2024-02-26T07:27:07;99960.66;;;9.70
26158;BMP280;67284;44.782;10.282;2024-02-26T07:31:59;99957.28;;;9.68
26158;BMP280;67284;44.782;10.282;2024-02-26T07:36:51;99950.47;;;9.66
26158;BMP280;67284;44.782;10.282;2024-02-26T07:41:43;99954.72;;;9.68
26158;BMP280;67284;44.782;10.282;2024-02-26T07:46:38;99940.03;;;9.73
26158;BMP280;67284;44.782;10.282;2024-02-26T07:51:30;99938.28;;;9.75
26158;BMP280;67284;44.782;10.282;2024-02-26T07:56:22;99939.97;;;9.76
26158;BMP280;67284;44.782;10.282;2024-02-26T08:01:14;99955.38;;;9.78
26158;BMP280;67284;44.782;10.282;2024-02-26T08:06:08;99952.06;;;9.73
26158;BMP280;67284;44.782;10.282;2024-02-26T08:11:00;99940.00;;;9.75
26158;BMP280;67284;44.782;10.282;2024-02-26T08:15:52;99950.97;;;9.84
26158;BMP280;67284;44.782;10.282;2024-02-26T08:20:44;99952.56;;;9.91
26158;BMP280;67284;44.782;10.282;2024-02-26T08:25:36;99956.81;;;9.93
26158;BMP280;67284;44.782;10.282;2024-02-26T08:30:28;99966.16;;;9.99
26158;BMP280;67284;44.782;10.282;2024-02-26T08:35:20;99961.94;;;9.95
26158;BMP280;67284;44.782;10.282;2024-02-26T08:40:12;99956.72;;;9.99
26158;BMP280;67284;44.782;10.282;2024-02-26T08:45:05;99957.50;;;10.01
26158;BMP280;67284;44.782;10.282;2024-02-26T08:49:57;99958.34;;;10.03
26158;BMP280;67284;44.782;10.282;2024-02-26T08:54:49;99957.47;;;10.03
26158;BMP280;67284;44.782;10.282;2024-02-26T08:59:41;99942.19;;;9.97
26158;BMP280;67284;44.782;10.282;2024-02-26T09:04:33;99931.88;;;9.98
26158;BMP280;67284;44.782;10.282;2024-02-26T09:09:25;99926.63;;;10.03
26158;BMP280;67284;44.782;10.282;2024-02-26T09:14:18;99926.56;;;10.07
26158;BMP280;67284;44.782;10.282;2024-02-26T09:19:10;99933.34;;;10.10
26158;BMP280;67284;44.782;10.282;2024-02-26T09:24:02;99934.22;;;10.10
26158;BMP280;67284;44.782;10.282;2024-02-26T09:28:54;99925.63;;;10.11
26158;BMP280;67284;44.782;10.282;2024-02-26T09:33:46;99930.69;;;10.16
26158;BMP280;67284;44.782;10.282;2024-02-26T09:38:39;99928.13;;;10.16
26158;BMP280;67284;44.782;10.282;2024-02-26T09:43:48;99917.69;;;10.22
26158;BMP280;67284;44.782;10.282;2024-02-26T09:48:40;99911.75;;;10.18
26158;BMP280;67284;44.782;10.282;2024-02-26T09:53:34;99910.94;;;10.18
26158;BMP280;67284;44.782;10.282;2024-02-26T09:58:31;99914.31;;;10.18
26158;BMP280;67284;44.782;10.282;2024-02-26T10:03:25;99910.19;;;10.11
26158;BMP280;67284;44.782;10.282;2024-02-26T10:08:20;99908.34;;;10.18
26158;BMP280;67284;44.782;10.282;2024-02-26T10:13:13;99914.25;;;10.21
26158;BMP280;67284;44.782;10.282;2024-02-26T10:18:06;99920.25;;;10.23
26158;BMP280;67284;44.782;10.282;2024-02-26T10:23:02;99920.22;;;10.25
26158;BMP280;67284;44.782;10.282;2024-02-26T10:27:54;99924.53;;;10.23
26158;BMP280;67284;44.782;10.282;2024-02-26T10:32:48;99923.69;;;10.22
26158;BMP280;67284;44.782;10.282;2024-02-26T10:37:41;99921.00;;;10.27
26158;BMP280;67284;44.782;10.282;2024-02-26T10:42:33;99924.41;;;10.29
26158;BMP280;67284;44.782;10.282;2024-02-26T10:47:25;99918.38;;;10.31
26158;BMP280;67284;44.782;10.282;2024-02-26T10:52:19;99911.44;;;10.33
26158;BMP280;67284;44.782;10.282;2024-02-26T10:57:11;99899.44;;;10.34
26158;BMP280;67284;44.782;10.282;2024-02-26T11:02:03;99900.25;;;10.36
26158;BMP280;67284;44.782;10.282;2024-02-26T11:06:57;99896.06;;;10.32
26158;BMP280;67284;44.782;10.282;2024-02-26T11:11:49;99881.53;;;10.29
26158;BMP280;67284;44.782;10.282;2024-02-26T11:16:47;99879.75;;;10.33
26158;BMP280;67284;44.782;10.282;2024-02-26T11:21:39;99876.31;;;10.32
26158;BMP280;67284;44.782;10.282;2024-02-26T11:26:36;99868.50;;;10.37
26158;BMP280;67284;44.782;10.282;2024-02-26T11:31:30;99871.09;;;10.37
26158;BMP280;67284;44.782;10.282;2024-02-26T11:36:25;99865.94;;;10.37
26158;BMP280;67284;44.782;10.282;2024-02-26T11:41:17;99853.91;;;10.38
26158;BMP280;67284;44.782;10.282;2024-02-26T11:46:26;99842.72;;;10.41
26158;BMP280;67284;44.782;10.282;2024-02-26T11:51:25;99846.16;;;10.40
26158;BMP280;67284;44.782;10.282;2024-02-26T12:06:28;99786.31;;;10.34
26158;BMP280;67284;44.782;10.282;2024-02-26T12:11:20;99785.47;;;10.33
26158;BMP280;67284;44.782;10.282;2024-02-26T12:16:12;99781.13;;;10.35
26158;BMP280;67284;44.782;10.282;2024-02-26T12:21:24;99773.38;;;10.37
26158;BMP280;67284;44.782;10.282;2024-02-26T12:26:16;99782.06;;;10.33
26158;BMP280;67284;44.782;10.282;2024-02-26T12:31:08;99769.97;;;10.36
26158;BMP280;67284;44.782;10.282;2024-02-26T12:36:00;99770.03;;;10.33
26158;BMP280;67284;44.782;10.282;2024-02-26T12:40:52;99772.53;;;10.36
26158;BMP280;67284;44.782;10.282;2024-02-26T12:45:44;99780.22;;;10.38
26158;BMP280;67284;44.782;10.282;2024-02-26T12:50:39;99776.81;;;10.37
26158;BMP280;67284;44.782;10.282;2024-02-26T12:55:32;99781.03;;;10.39
26158;BMP280;67284;44.782;10.282;2024-02-26T13:00:27;99784.38;;;10.43
26158;BMP280;67284;44.782;10.282;2024-02-26T13:05:20;99800.59;;;10.46
26158;BMP280;67284;44.782;10.282;2024-02-26T13:10:13;99796.31;;;10.45
26158;BMP280;67284;44.782;10.282;2024-02-26T13:15:06;99780.97;;;10.42
26158;BMP280;67284;44.782;10.282;2024-02-26T13:19:58;99779.22;;;10.43
26158;BMP280;67284;44.782;10.282;2024-02-26T13:24:56;99788.72;;;10.41
26158;BMP280;67284;44.782;10.282;2024-02-26T13:29:49;99772.47;;;10.39
26158;BMP280;67284;44.782;10.282;2024-02-26T13:34:41;99775.06;;;10.38
26158;BMP280;67284;44.782;10.282;2024-02-26T13:39:37;99775.94;;;10.38
26158;BMP280;67284;44.782;10.282;2024-02-26T13:44:32;99767.34;;;10.38
26158;BMP280;67284;44.782;10.282;2024-02-26T13:49:28;99752.75;;;10.39
26158;BMP280;67284;44.782;10.282;2024-02-26T13:54:20;99747.47;;;10.45
26158;BMP280;67284;44.782;10.282;2024-02-26T13:59:12;99737.31;;;10.39
26158;BMP280;67284;44.782;10.282;2024-02-26T14:04:04;99738.34;;;10.33
26158;BMP280;67284;44.782;10.282;2024-02-26T14:08:56;99718.69;;;10.30
26158;BMP280;67284;44.782;10.282;2024-02-26T14:13:48;99720.47;;;10.27
26158;BMP280;67284;44.782;10.282;2024-02-26T14:18:40;99720.50;;;10.25
26158;BMP280;67284;44.782;10.282;2024-02-26T14:23:32;99735.16;;;10.23
26158;BMP280;67284;44.782;10.282;2024-02-26T14:28:24;99754.81;;;10.26
26158;BMP280;67284;44.782;10.282;2024-02-26T14:33:26;99760.78;;;10.26
26158;BMP280;67284;44.782;10.282;2024-02-26T14:38:18;99753.81;;;10.31
26158;BMP280;67284;44.782;10.282;2024-02-26T14:43:10;99753.78;;;10.33
26158;BMP280;67284;44.782;10.282;2024-02-26T14:48:03;99749.53;;;10.30
26158;BMP280;67284;44.782;10.282;2024-02-26T14:52:55;99758.09;;;10.31
26158;BMP280;67284;44.782;10.282;2024-02-26T14:57:47;99775.28;;;10.29
26158;BMP280;67284;44.782;10.282;2024-02-26T15:02:39;99794.97;;;10.30
26158;BMP280;67284;44.782;10.282;2024-02-26T15:07:30;99786.38;;;10.31
26158;BMP280;67284;44.782;10.282;2024-02-26T15:12:23;99778.72;;;10.28
26158;BMP280;67284;44.782;10.282;2024-02-26T15:17:22;99779.63;;;10.25
26158;BMP280;67284;44.782;10.282;2024-02-26T15:22:15;99762.47;;;10.27
26158;BMP280;67284;44.782;10.282;2024-02-26T15:27:09;99767.72;;;10.21
26158;BMP280;67284;44.782;10.282;2024-02-26T15:32:03;99803.00;;;10.16
26158;BMP280;67284;44.782;10.282;2024-02-26T15:36:54;99808.25;;;10.12
26158;BMP280;67284;44.782;10.282;2024-02-26T15:41:46;99815.09;;;10.11
26158;BMP280;67284;44.782;10.282;2024-02-26T15:46:42;99815.97;;;10.12
26158;BMP280;67284;44.782;10.282;2024-02-26T15:51:34;99810.91;;;10.06
26158;BMP280;67284;44.782;10.282;2024-02-26T15:56:27;99822.28;;;9.96
26158;BMP280;67284;44.782;10.282;2024-02-26T16:01:19;99829.94;;;9.97
26158;BMP280;67284;44.782;10.282;2024-02-26T16:06:22;99824.06;;;9.91
26158;BMP280;67284;44.782;10.282;2024-02-26T16:11:16;99836.09;;;9.89
26158;BMP280;67284;44.782;10.282;2024-02-26T16:16:13;99847.28;;;9.88
26158;BMP280;67284;44.782;10.282;2024-02-26T16:21:06;99838.63;;;9.90
26158;BMP280;67284;44.782;10.282;2024-02-26T16:25:58;99867.78;;;9.89
26158;BMP280;67284;44.782;10.282;2024-02-26T16:30:51;99874.56;;;9.95
26158;BMP280;67284;44.782;10.282;2024-02-26T16:35:44;99860.72;;;10.02
26158;BMP280;67284;44.782;10.282;2024-02-26T16:40:36;99860.78;;;9.99
26158;BMP280;67284;44.782;10.282;2024-02-26T16:45:28;99883.06;;;9.98
26158;BMP280;67284;44.782;10.282;2024-02-26T16:50:21;99885.59;;;10.00
26158;BMP280;67284;44.782;10.282;2024-02-26T16:55:13;99872.81;;;9.97
26158;BMP280;67284;44.782;10.282;2024-02-26T17:00:06;99870.19;;;9.98
26158;BMP280;67284;44.782;10.282;2024-02-26T17:04:59;99891.69;;;9.94
26158;BMP280;67284;44.782;10.282;2024-02-26T17:09:51;99880.50;;;9.97
26158;BMP280;67284;44.782;10.282;2024-02-26T17:14:44;99906.25;;;9.94
26158;BMP280;67284;44.782;10.282;2024-02-26T17:19:40;99916.53;;;9.94
26158;BMP280;67284;44.782;10.282;2024-02-26T17:24:31;99911.44;;;9.91
26158;BMP280;67284;44.782;10.282;2024-02-26T17:29:23;99921.72;;;9.91
26158;BMP280;67284;44.782;10.282;2024-02-26T17:34:16;99936.28;;;9.90
26158;BMP280;67284;44.782;10.282;2024-02-26T17:39:08;99945.66;;;9.94
26158;BMP280;67284;44.782;10.282;2024-02-26T17:44:00;99955.03;;;9.97
26158;BMP280;67284;44.782;10.282;2024-02-26T17:48:51;99953.19;;;10.05
26158;BMP280;67284;44.782;10.282;2024-02-26T17:53:44;99953.13;;;10.08
26158;BMP280;67284;44.782;10.282;2024-02-26T17:58:37;99944.50;;;10.10
26158;BMP280;67284;44.782;10.282;2024-02-26T18:03:32;99942.72;;;10.14
26158;BMP280;67284;44.782;10.282;2024-02-26T18:08:24;99946.03;;;10.19
26158;BMP280;67284;44.782;10.282;2024-02-26T18:13:16;99949.41;;;10.21
26158;BMP280;67284;44.782;10.282;2024-02-26T18:18:08;99956.25;;;10.22
26158;BMP280;67284;44.782;10.282;2024-02-26T18:23:00;99952.81;;;10.23
26158;BMP280;67284;44.782;10.282;2024-02-26T18:27:52;99949.59;;;10.13
26158;BMP280;67284;44.782;10.282;2024-02-26T18:32:44;99960.69;;;10.14
26158;BMP280;67284;44.782;10.282;2024-02-26T18:37:38;99966.66;;;10.17
26158;BMP280;67284;44.782;10.282;2024-02-26T18:42:30;99969.97;;;10.21
26158;BMP280;67284;44.782;10.282;2024-02-26T18:47:22;99957.19;;;10.18
26158;BMP280;67284;44.782;10.282;2024-02-26T18:52:15;99959.78;;;10.16
26158;BMP280;67284;44.782;10.282;2024-02-26T18:57:07;99962.38;;;10.16
26158;BMP280;67284;44.782;10.282;2024-02-26T19:01:59;99946.06;;;10.17
26158;BMP280;67284;44.782;10.282;2024-02-26T19:06:51;99940.00;;;10.20
26158;BMP280;67284;44.782;10.282;2024-02-26T19:11:46;99947.69;;;10.21
26158;BMP280;67284;44.782;10.282;2024-02-26T19:16:40;99945.22;;;10.17
26158;BMP280;67284;44.782;10.282;2024-02-26T19:21:34;99949.72;;;10.06
26158;BMP280;67284;44.782;10.282;2024-02-26T19:26:26;99949.72;;;10.06
26158;BMP280;67284;44.782;10.282;2024-02-26T19:31:18;99964.31;;;10.04
26158;BMP280;67284;44.782;10.282;2024-02-26T19:36:10;99961.00;;;9.99
26158;BMP280;67284;44.782;10.282;2024-02-26T19:41:02;99961.97;;;9.90
26158;BMP280;67284;44.782;10.282;2024-02-26T19:45:54;99959.44;;;9.89
26158;BMP280;67284;44.782;10.282;2024-02-26T19:50:46;99961.97;;;9.90
26158;BMP280;67284;44.782;10.282;2024-02-26T19:55:37;99974.78;;;9.95
26158;BMP280;67284;44.782;10.282;2024-02-26T20:00:30;99977.38;;;9.92
26158;BMP280;67284;44.782;10.282;2024-02-26T20:05:22;99984.19;;;9.94
26158;BMP280;67284;44.782;10.282;2024-02-26T20:10:15;99984.19;;;9.94
26158;BMP280;67284;44.782;10.282;2024-02-26T20:15:07;99985.06;;;9.95
26158;BMP280;67284;44.782;10.282;2024-02-26T20:19:59;99984.16;;;9.99
26158;BMP280;67284;44.782;10.282;2024-02-26T20:24:51;99980.63;;;10.01
26158;BMP280;67284;44.782;10.282;2024-02-26T20:29:47;99998.66;;;10.00
26158;BMP280;67284;44.782;10.282;2024-02-26T20:34:39;99996.19;;;9.95
26158;BMP280;67284;44.782;10.282;2024-02-26T20:39:32;99991.88;;;9.96
26158;BMP280;67284;44.782;10.282;2024-02-26T20:44:24;99997.19;;;9.85
26158;BMP280;67284;44.782;10.282;2024-02-26T20:49:16;99985.50;;;9.70
26158;BMP280;67284;44.782;10.282;2024-02-26T20:54:09;99982.19;;;9.63
26158;BMP280;67284;44.782;10.282;2024-02-26T20:59:02;99975.28;;;9.65
26158;BMP280;67284;44.782;10.282;2024-02-26T21:03:55;99975.97;;;9.75
26158;BMP280;67284;44.782;10.282;2024-02-26T21:08:47;99976.81;;;9.75
26158;BMP280;67284;44.782;10.282;2024-02-26T21:13:39;99977.56;;;9.82
26158;BMP280;67284;44.782;10.282;2024-02-26T21:18:32;99972.59;;;9.73
26158;BMP280;67284;44.782;10.282;2024-02-26T21:23:27;99976.09;;;9.69
26158;BMP280;67284;44.782;10.282;2024-02-26T21:28:19;99988.94;;;9.69
26158;BMP280;67284;44.782;10.282;2024-02-26T21:33:11;99982.06;;;9.69
26158;BMP280;67284;44.782;10.282;2024-02-26T21:38:03;99981.13;;;9.75
26158;BMP280;67284;44.782;10.282;2024-02-26T21:42:57;99980.31;;;9.73
26158;BMP280;67284;44.782;10.282;2024-02-26T21:47:49;99984.53;;;9.75
26158;BMP280;67284;44.782;10.282;2024-02-26T21:52:41;99984.44;;;9.81
26158;BMP280;67284;44.782;10.282;2024-02-26T21:57:34;99977.41;;;9.89
26158;BMP280;67284;44.782;10.282;2024-02-26T22:02:26;99973.06;;;9.94
26158;BMP280;67284;44.782;10.282;2024-02-26T22:07:18;99967.06;;;9.96
26158;BMP280;67284;44.782;10.282;2024-02-26T22:12:10;99969.53;;;10.01
26158;BMP280;67284;44.782;10.282;2024-02-26T22:17:02;99965.19;;;10.03
26158;BMP280;67284;44.782;10.282;2024-02-26T22:21:54;99965.13;;;10.06
26158;BMP280;67284;44.782;10.282;2024-02-26T22:26:46;99958.25;;;10.08
26158;BMP280;67284;44.782;10.282;2024-02-26T22:31:38;99954.81;;;10.09
26158;BMP280;67284;44.782;10.282;2024-02-26T22:36:30;99965.13;;;10.06
26158;BMP280;67284;44.782;10.282;2024-02-26T22:41:24;99956.66;;;10.02
26158;BMP280;67284;44.782;10.282;2024-02-26T22:46:16;99962.00;;;9.89
26158;BMP280;67284;44.782;10.282;2024-02-26T22:51:08;99956.91;;;9.86
26158;BMP280;67284;44.782;10.282;2024-02-26T22:56:00;99971.53;;;9.84
26158;BMP280;67284;44.782;10.282;2024-02-26T23:00:52;99966.38;;;9.84
26158;BMP280;67284;44.782;10.282;2024-02-26T23:05:44;99969.03;;;9.81
26158;BMP280;67284;44.782;10.282;2024-02-26T23:10:37;99946.78;;;9.79
26158;BMP280;67284;44.782;10.282;2024-02-26T23:15:29;99922.88;;;9.75
26158;BMP280;67284;44.782;10.282;2024-02-26T23:20:23;99906.84;;;9.64
26158;BMP280;67284;44.782;10.282;2024-02-26T23:25:16;99910.13;;;9.69
26158;BMP280;67284;44.782;10.282;2024-02-26T23:30:10;99930.63;;;9.72
26158;BMP280;67284;44.782;10.282;2024-02-26T23:35:02;99932.41;;;9.70
26158;BMP280;67284;44.782;10.282;2024-02-26T23:39:54;99925.56;;;9.69
26158;BMP280;67284;44.782;10.282;2024-02-26T23:44:46;99904.34;;;9.60
26158;BMP280;67284;44.782;10.282;2024-02-26T23:49:38;99899.22;;;9.60
26158;BMP280;67284;44.782;10.282;2024-02-26T23:54:30;99883.84;;;9.55
26158;BMP280;67284;44.782;10.282;2024-02-26T23:59:22;99876.34;;;9.46
